Decoded Metar for TIST (ST. THOMAS in VIRGIN ISL.) (IATA:STT) | Meteo·Mobile Aviation Weather
aviador You're here:

TIST Decoded Metar

ST. THOMAS in VIRGIN ISL.
Report Time2019-01-16 17:53:00
UTC Time2019-01-16 18:27:34
Flight Rules vfr VFR
Wind130° at 12 kt
W.Decomp.*RWY 10: 8.8 kt HW 8.2 kt RCW
W.Rank130° ranks 5
Current wind is above 130° avg. (10.7)
Visibility9999 m
Phenomena:N/A
Clouds:Few 037 Hf
Expected CloudBase > 2,800 ft AGL from Temp-Dew spread
CeilingNone
Temp28°C (ISA +13)
Dew Point21°C (66% RH)
Heat Index30.2°C
AAT27.9°C
QNH1017 hPa
Density Alt1,719 ft
Elevation23 ft
Report Wrong Elevation
Raw Report
TIST 161753Z 13012KT 10SM FEW037 28/21 A3004=

Extra information for TIST:More info

Metar Taf Metar & Taf Last 4 Metars F.Rules Stats Wind Profile Meteogram Temp Stats Airport Information Weather charts Add Link Nearby VenuesMetar ALERT Operation Metar Decoded Social comments